createdAt,value
2022-08-16T00:03:13.635Z,99.90
2022-08-16T00:08:36.099Z,99.90
2022-08-16T00:13:25.693Z,99.90
2022-08-16T00:18:32.839Z,99.90
2022-08-16T00:23:40.375Z,99.90
2022-08-16T00:28:45.722Z,99.90
2022-08-16T00:33:51.457Z,99.90
2022-08-16T00:38:58.334Z,99.90
2022-08-16T00:44:11.276Z,99.90
2022-08-16T00:49:19.571Z,99.90
2022-08-16T00:54:26.808Z,99.90
2022-08-16T00:59:35.789Z,99.90
2022-08-16T01:04:42.857Z,99.90
2022-08-16T01:09:49.896Z,99.90
2022-08-16T01:14:58.297Z,99.90
2022-08-16T01:20:23.702Z,99.90
2022-08-16T01:25:18.334Z,99.90
2022-08-16T01:30:31.337Z,99.90
2022-08-16T01:35:42.270Z,99.90
2022-08-16T01:40:49.477Z,99.90
2022-08-16T01:45:58.317Z,99.90
2022-08-16T01:51:07.955Z,99.90
2022-08-16T01:56:24.983Z,99.90
2022-08-16T02:01:20.188Z,99.90
2022-08-16T02:06:34.335Z,99.90
2022-08-16T02:11:47.883Z,99.90
2022-08-16T02:16:41.027Z,99.90
2022-08-16T02:22:08.319Z,99.90
2022-08-16T02:26:58.566Z,99.90
2022-08-16T02:32:51.100Z,99.90
2022-08-16T02:37:12.627Z,99.90
2022-08-16T02:42:19.588Z,99.90
2022-08-16T02:47:25.773Z,99.90
2022-08-16T02:52:32.139Z,99.90
2022-08-16T02:57:42.370Z,99.90
2022-08-16T03:02:46.706Z,99.90
2022-08-16T03:07:53.506Z,99.90
2022-08-16T03:12:59.941Z,99.90
2022-08-16T03:18:05.416Z,99.90
2022-08-16T03:23:12.871Z,99.90
2022-08-16T03:28:20.934Z,99.90
2022-08-16T03:33:29.771Z,99.90
2022-08-16T03:38:35.315Z,99.90
2022-08-16T03:43:51.707Z,99.90
2022-08-16T03:48:47.922Z,99.90
2022-08-16T03:54:00.795Z,99.90
2022-08-16T03:59:02.052Z,99.90
2022-08-16T04:04:07.608Z,99.90
2022-08-16T04:09:14.478Z,99.90
2022-08-16T04:14:32.306Z,99.90
2022-08-16T04:19:31.719Z,99.90
2022-08-16T04:24:36.040Z,99.90
2022-08-16T04:29:43.946Z,99.90
2022-08-16T04:34:50.412Z,99.90
2022-08-16T04:39:57.235Z,99.90
2022-08-16T04:45:04.468Z,99.90
2022-08-16T04:50:18.472Z,99.90
2022-08-16T04:55:31.808Z,99.90
2022-08-16T05:00:36.083Z,99.90
2022-08-16T05:05:45.166Z,99.90
2022-08-16T05:10:49.965Z,99.90
2022-08-16T05:15:55.657Z,99.90
2022-08-16T05:21:11.047Z,99.90
2022-08-16T05:26:20.244Z,99.90
2022-08-16T05:31:17.006Z,99.90
2022-08-16T05:36:23.182Z,99.90
2022-08-16T05:41:30.672Z,99.90
2022-08-16T05:46:36.462Z,99.90
2022-08-16T05:51:45.809Z,99.90
2022-08-16T05:56:51.544Z,99.90
2022-08-16T06:01:57.380Z,99.90
2022-08-16T06:07:06.800Z,99.90
2022-08-16T06:12:27.074Z,99.90
2022-08-16T06:17:23.487Z,99.90
2022-08-16T06:22:39.421Z,99.90
2022-08-16T06:27:39.850Z,99.90
2022-08-16T06:32:48.539Z,99.90
2022-08-16T06:37:51.365Z,99.90
2022-08-16T06:42:57.918Z,99.90
2022-08-16T06:48:03.436Z,99.90
2022-08-16T06:53:10.486Z,99.90
2022-08-16T06:58:21.870Z,99.90
2022-08-16T07:03:27.611Z,99.90
2022-08-16T07:08:30.518Z,99.90
2022-08-16T07:14:22.996Z,99.90
2022-08-16T07:18:59.211Z,99.90
2022-08-16T07:23:58.066Z,99.90
2022-08-16T07:29:02.138Z,99.90
2022-08-16T07:34:10.259Z,99.90
2022-08-16T07:39:19.008Z,99.90
2022-08-16T07:44:26.755Z,99.90
2022-08-16T07:49:32.580Z,99.90
2022-08-16T07:54:45.598Z,99.90
2022-08-16T07:59:46.038Z,99.90
2022-08-16T08:04:51.975Z,99.90
2022-08-16T08:09:58.678Z,99.90
2022-08-16T08:15:09.692Z,99.90
2022-08-16T08:20:26.084Z,99.90
2022-08-16T08:25:23.398Z,99.30
2022-08-16T08:30:52.295Z,96.70
2022-08-16T08:35:35.990Z,93.80
2022-08-16T08:40:41.492Z,91.90
2022-08-16T08:45:49.171Z,94.60
2022-08-16T08:50:54.319Z,89.30
2022-08-16T08:56:23.306Z,85.60
2022-08-16T09:01:10.197Z,88.40
2022-08-16T09:06:18.429Z,85.60
2022-08-16T09:11:24.288Z,85.00
2022-08-16T09:16:57.688Z,82.10
2022-08-16T09:21:40.836Z,84.80
2022-08-16T09:26:47.910Z,81.30
2022-08-16T09:31:58.361Z,78.90
2022-08-16T09:37:17.900Z,78.40
2022-08-16T09:42:11.915Z,75.10
2022-08-16T09:47:18.919Z,72.00
2022-08-16T09:52:26.468Z,70.60
2022-08-16T09:57:34.402Z,67.40
2022-08-16T10:02:44.224Z,66.00
2022-08-16T10:07:47.445Z,65.20
2022-08-16T10:13:10.347Z,65.30
2022-08-16T10:18:48.286Z,65.10
2022-08-16T10:23:24.631Z,63.10
2022-08-16T10:28:40.309Z,61.00
2022-08-16T10:33:40.364Z,61.10
2022-08-16T10:38:45.827Z,59.40
2022-08-16T10:43:51.511Z,60.30
2022-08-16T10:48:57.163Z,57.30
2022-08-16T10:54:04.826Z,59.50
2022-08-16T11:09:28.631Z,61.30
2022-08-16T11:14:31.879Z,58.80
2022-08-16T11:20:00.625Z,61.50
2022-08-16T11:24:44.891Z,58.40
2022-08-16T11:29:54.851Z,61.70
2022-08-16T11:35:13.824Z,58.50
2022-08-16T11:40:10.099Z,57.90
2022-08-16T11:45:18.980Z,59.10
2022-08-16T11:50:24.878Z,61.60
2022-08-16T11:55:30.263Z,63.50
2022-08-16T12:00:51.325Z,65.10
2022-08-16T12:05:46.229Z,67.60
2022-08-16T12:10:53.282Z,66.20
2022-08-16T12:15:58.584Z,68.80
2022-08-16T12:21:04.764Z,72.10
2022-08-16T12:26:10.254Z,73.20
2022-08-16T12:31:17.327Z,74.70
2022-08-16T12:36:23.683Z,80.30
2022-08-16T12:41:29.261Z,87.70
2022-08-16T12:46:36.869Z,99.20
2022-08-16T12:51:59.360Z,99.90
2022-08-16T12:56:50.933Z,99.90
2022-08-16T13:01:58.543Z,99.90
2022-08-16T13:07:06.127Z,99.90
2022-08-16T13:12:29.029Z,99.90
2022-08-16T13:17:34.586Z,99.90
2022-08-16T13:22:45.400Z,99.90
2022-08-16T13:28:02.494Z,99.90
2022-08-16T13:33:00.600Z,99.90
2022-08-16T13:38:06.373Z,99.90
2022-08-16T13:43:12.043Z,99.90
2022-08-16T13:48:21.782Z,99.90
2022-08-16T13:53:25.990Z,99.90
2022-08-16T13:58:34.795Z,99.90
2022-08-16T14:03:40.090Z,99.90
2022-08-16T14:08:45.588Z,99.90
2022-08-16T14:13:52.931Z,99.90
2022-08-16T14:18:58.356Z,99.90
2022-08-16T14:24:08.126Z,99.90
2022-08-16T14:29:12.679Z,99.90
2022-08-16T14:34:18.890Z,99.90
2022-08-16T14:39:25.618Z,99.90
2022-08-16T14:44:30.971Z,99.90
2022-08-16T14:49:37.875Z,99.90
2022-08-16T14:54:45.180Z,99.90
2022-08-16T14:59:52.199Z,99.90
2022-08-16T15:04:58.710Z,99.90
2022-08-16T15:10:05.018Z,99.90
2022-08-16T15:15:16.613Z,99.90
2022-08-16T15:20:21.589Z,99.90
2022-08-16T15:25:31.433Z,99.90
2022-08-16T15:30:56.739Z,99.90
2022-08-16T15:35:47.595Z,99.90
2022-08-16T15:40:58.565Z,99.90
2022-08-16T15:46:53.962Z,99.90
2022-08-16T15:51:26.368Z,99.90
2022-08-16T15:56:32.052Z,99.90
2022-08-16T16:01:37.394Z,99.90
2022-08-16T16:06:45.091Z,99.90
2022-08-16T16:11:50.474Z,99.90
2022-08-16T16:16:56.936Z,99.90
2022-08-16T16:22:02.355Z,99.90
2022-08-16T16:27:08.081Z,99.90
2022-08-16T16:32:13.600Z,99.90
2022-08-16T16:37:20.641Z,99.90
2022-08-16T16:42:29.882Z,99.90
2022-08-16T16:47:40.558Z,99.90
2022-08-16T16:52:45.121Z,99.90
2022-08-16T16:58:17.973Z,99.90
2022-08-16T17:03:17.279Z,99.90
2022-08-16T17:08:24.219Z,99.90
2022-08-16T17:13:30.133Z,99.90
2022-08-16T17:19:17.095Z,99.90
2022-08-16T17:23:58.180Z,99.90
2022-08-16T17:28:58.201Z,99.90
2022-08-16T17:33:58.631Z,99.90
2022-08-16T17:39:07.852Z,99.90
2022-08-16T17:44:14.784Z,99.90
2022-08-16T17:49:20.265Z,99.90
2022-08-16T17:54:30.640Z,99.90
2022-08-16T17:59:32.980Z,99.90
2022-08-16T18:04:48.236Z,99.90
2022-08-16T18:09:47.009Z,99.90
2022-08-16T18:14:54.943Z,99.90
2022-08-16T18:19:59.546Z,99.90
2022-08-16T18:25:06.842Z,99.90
2022-08-16T18:30:14.740Z,99.90
2022-08-16T18:35:21.652Z,99.90
2022-08-16T18:40:27.051Z,99.90
2022-08-16T18:45:35.288Z,99.90
2022-08-16T18:51:04.918Z,99.90
2022-08-16T18:55:52.965Z,99.90
2022-08-16T19:00:58.948Z,99.90
2022-08-16T19:06:13.839Z,99.90
2022-08-16T19:11:22.742Z,99.90
2022-08-16T19:16:28.048Z,99.90
2022-08-16T19:21:33.384Z,99.90
2022-08-16T19:26:38.925Z,99.90
2022-08-16T19:31:44.650Z,99.90
2022-08-16T19:36:51.406Z,99.90
2022-08-16T19:42:16.954Z,99.90
2022-08-16T19:47:23.297Z,99.90
2022-08-16T19:52:32.167Z,99.90
2022-08-16T19:57:39.130Z,99.90
2022-08-16T20:03:03.133Z,99.90
2022-08-16T20:08:08.798Z,99.90
2022-08-16T20:13:19.746Z,99.90
2022-08-16T20:18:26.222Z,99.90
2022-08-16T20:23:31.736Z,99.90
2022-08-16T20:28:51.947Z,99.90
2022-08-16T20:33:44.277Z,99.90
2022-08-16T20:38:50.376Z,99.90
2022-08-16T20:43:55.873Z,99.90
2022-08-16T20:49:01.407Z,99.90
2022-08-16T20:54:06.919Z,99.90
2022-08-16T20:59:12.757Z,99.90
2022-08-16T21:04:19.491Z,99.90
2022-08-16T21:09:31.577Z,99.90
2022-08-16T21:14:37.882Z,99.90
2022-08-16T21:19:45.209Z,99.90
2022-08-16T21:24:54.112Z,99.90
2022-08-16T21:29:57.907Z,99.90
2022-08-16T21:35:07.635Z,99.90
2022-08-16T21:40:14.837Z,99.90
2022-08-16T21:45:20.637Z,99.90
2022-08-16T21:50:27.549Z,99.90
2022-08-16T21:55:33.102Z,99.90
2022-08-16T22:00:39.683Z,99.90
2022-08-16T22:06:13.393Z,99.90
2022-08-16T22:11:06.266Z,99.90
2022-08-16T22:16:01.711Z,99.90
2022-08-16T22:21:07.328Z,99.90
2022-08-16T22:26:15.012Z,99.90
2022-08-16T22:31:20.504Z,99.90
2022-08-16T22:36:29.162Z,99.90
2022-08-16T22:41:35.884Z,99.90
2022-08-16T22:46:41.531Z,99.90
2022-08-16T22:51:47.161Z,99.90
2022-08-16T22:56:53.047Z,99.90
2022-08-16T23:01:59.687Z,99.90
2022-08-16T23:07:06.906Z,99.90
2022-08-16T23:12:12.551Z,99.90
2022-08-16T23:17:19.842Z,99.90
2022-08-16T23:22:25.265Z,99.90
2022-08-16T23:27:30.753Z,99.90
2022-08-16T23:32:37.945Z,99.90
2022-08-16T23:37:44.058Z,99.90
2022-08-16T23:43:07.675Z,99.90
2022-08-16T23:48:15.206Z,99.90
2022-08-16T23:53:32.732Z,99.90
2022-08-16T23:58:41.062Z,99.90
